Hampden, Canada
Current Conditions -  °F | °C
As of 3:00 PM on Saturday 25 Oct 2014 (Local Time) from CYDF Reporting Station
Overcast Overcast  
Wind Chill: 32°   Ceiling: 1900
Heat Index: 41°   Visibility: 10mi
Dew Point: 39°   Wind: 21mph
Humidity: 93%   Direction: 50°NE
Pressure: 29.56"   Gusts: 28mph
Location:  49.53°N, 56.87°W
Report Text: CYDF 251700Z 05018G24KT 10SM SCT008 OVC019 05/04 A2956 RMK SF3SC5 SLP012
Loading
Personal Weather Stations






























Interactive Weather Map
Tropical Storm Tracking
New forecast layout! Learn more

10-Day Weather Forecast

Advertisements
Track Severe Weather on mobile